Terminal Aerodrome Forecast
Issued by NWS

Home | Current Version | Previous Version | Text Only | Print | Product List | Glossary On
Versions: 1 2 3 4 5 6 7 8 9 10 11 12 13 14
000
FTUS45 KCYS 162300
TAFAIA
TAF
KAIA 162320Z 1700/1724 01014G25KT P6SM SCT027 SCT050
     FM170200 04007KT P6SM BKN035
     FM170500 16007KT 1SM BR OVC015
     FM171500 17012KT P6SM SCT040
     FM171900 17015G25KT P6SM SCT040=

USA.gov is the U.S. government's official web portal to all federal, state and local government web resources and services.